createdAt,value
2022-11-08T00:00:06.239Z,100693.44
2022-11-08T00:02:33.247Z,100680.06
2022-11-08T00:05:21.603Z,100685.31
2022-11-08T00:08:06.964Z,100689.19
2022-11-08T00:10:52.832Z,100687.09
2022-11-08T00:13:38.124Z,100692.53
2022-11-08T00:16:05.355Z,100684.03
2022-11-08T00:18:34.361Z,100679.31
2022-11-08T00:21:04.322Z,100680.97
2022-11-08T00:23:31.335Z,100686.31
2022-11-08T00:25:59.091Z,100685.66
2022-11-08T00:28:26.120Z,100681.94
2022-11-08T00:30:55.186Z,100681.66
2022-11-08T00:33:22.372Z,100684.75
2022-11-08T00:35:52.482Z,100676.25
2022-11-08T00:38:21.833Z,100675.34
2022-11-08T00:40:51.572Z,100677.47
2022-11-08T00:43:18.728Z,100668.25
2022-11-08T00:45:48.019Z,100678.06
2022-11-08T00:48:15.210Z,100682.31
2022-11-08T00:50:42.432Z,100673.25
2022-11-08T00:53:09.392Z,100682.19
2022-11-08T00:55:36.575Z,100681.88
2022-11-08T00:58:03.654Z,100678.44
2022-11-08T01:00:30.816Z,100673.44
2022-11-08T01:03:16.313Z,100677.06
2022-11-08T01:05:47.929Z,100663.03
2022-11-08T01:08:17.791Z,100675.22
2022-11-08T01:10:48.858Z,100675.25
2022-11-08T01:13:16.647Z,100670.84
2022-11-08T01:15:45.782Z,100668.94
2022-11-08T01:18:15.943Z,100673.03
2022-11-08T01:20:45.090Z,100668.03
2022-11-08T01:23:15.496Z,100673.31
2022-11-08T01:25:45.866Z,100673.09
2022-11-08T01:28:13.710Z,100669.47
2022-11-08T01:30:42.926Z,100673.88
2022-11-08T01:33:12.813Z,100674.59
2022-11-08T01:35:43.196Z,100682.69
2022-11-08T01:38:10.960Z,100671.69
2022-11-08T01:40:47.652Z,100676.53
2022-11-08T01:43:44.703Z,100675.22
2022-11-08T01:46:30.243Z,100673.66
2022-11-08T01:49:20.166Z,100677.63
2022-11-08T01:52:13.434Z,100681.06
2022-11-08T01:55:11.166Z,100675.91
2022-11-08T01:58:05.166Z,100674.16
2022-11-08T02:00:39.783Z,100676.88
2022-11-08T02:03:12.823Z,100672.75
2022-11-08T02:05:42.890Z,100685.97
2022-11-08T02:08:15.780Z,100678.22
2022-11-08T02:10:53.412Z,100678.06
2022-11-08T02:13:27.871Z,100673.56
2022-11-08T02:15:55.687Z,100668.75
2022-11-08T02:18:32.211Z,100670.56
2022-11-08T02:21:18.065Z,100673.66
2022-11-08T02:24:02.375Z,100675.34
2022-11-08T02:26:34.764Z,100671.69
2022-11-08T02:29:35.711Z,100665.88
2022-11-08T02:32:07.981Z,100663.75
2022-11-08T02:34:41.916Z,100663.47
2022-11-08T02:37:14.592Z,100670.59
2022-11-08T02:39:41.444Z,100661.06
2022-11-08T02:42:20.091Z,100660.59
2022-11-08T02:44:47.738Z,100655.78
2022-11-08T02:47:18.184Z,100658.25
2022-11-08T02:49:45.067Z,100667.03
2022-11-08T02:52:12.202Z,100655.78
2022-11-08T02:54:39.200Z,100652.41
2022-11-08T02:57:06.174Z,100663.50
2022-11-08T02:59:33.219Z,100654.09
2022-11-08T03:02:07.582Z,100651.56
2022-11-08T03:04:34.718Z,100648.75
2022-11-08T03:07:01.638Z,100652.78
2022-11-08T03:09:28.647Z,100649.69
2022-11-08T03:11:58.682Z,100648.06
2022-11-08T03:14:26.278Z,100648.53
2022-11-08T03:16:53.181Z,100650.22
2022-11-08T03:19:20.034Z,100656.06
2022-11-08T03:21:46.906Z,100653.16
2022-11-08T03:24:15.976Z,100658.59
2022-11-08T03:26:44.656Z,100654.84
2022-11-08T03:29:11.600Z,100654.38
2022-11-08T03:31:41.104Z,100657.03
2022-11-08T03:34:10.511Z,100649.59
2022-11-08T03:36:40.068Z,100656.25
2022-11-08T03:39:06.967Z,100654.28
2022-11-08T03:41:33.905Z,100659.44
2022-11-08T03:44:02.993Z,100657.00
2022-11-08T03:46:30.099Z,100661.69
2022-11-08T03:48:57.084Z,100661.50
2022-11-08T03:51:26.518Z,100662.72
2022-11-08T03:53:53.374Z,100661.31
2022-11-08T03:56:20.298Z,100663.84
2022-11-08T03:58:47.431Z,100654.94
2022-11-08T04:01:14.438Z,100658.50
2022-11-08T04:03:41.426Z,100655.41
2022-11-08T04:06:08.630Z,100654.38
2022-11-08T04:08:35.625Z,100663.28
2022-11-08T04:11:22.445Z,100657.56
2022-11-08T04:14:18.665Z,100655.41
2022-11-08T04:16:45.675Z,100652.28
2022-11-08T04:19:33.478Z,100659.41
2022-11-08T04:22:03.385Z,100664.59
2022-11-08T04:24:30.250Z,100660.91
2022-11-08T04:26:57.271Z,100653.66
2022-11-08T04:29:26.356Z,100662.13
2022-11-08T04:31:55.792Z,100659.53
2022-11-08T04:34:22.806Z,100650.41
2022-11-08T04:36:49.742Z,100657.16
2022-11-08T04:39:16.789Z,100647.41
2022-11-08T04:41:43.648Z,100651.22
2022-11-08T04:44:11.758Z,100646.91
2022-11-08T04:46:41.184Z,100638.56
2022-11-08T04:49:08.606Z,100641.72
2022-11-08T04:51:38.077Z,100648.25
2022-11-08T04:54:07.687Z,100646.22
2022-11-08T04:56:34.758Z,100639.91
2022-11-08T04:59:01.894Z,100646.81
2022-11-08T05:01:31.823Z,100647.13
2022-11-08T05:03:59.376Z,100644.50
2022-11-08T05:06:31.566Z,100643.59
2022-11-08T05:08:59.723Z,100645.84
2022-11-08T05:11:29.749Z,100647.00
2022-11-08T05:14:01.632Z,100644.03
2022-11-08T05:16:32.582Z,100638.00
2022-11-08T05:19:00.128Z,100636.56
2022-11-08T05:21:48.875Z,100636.91
2022-11-08T05:24:17.880Z,100641.94
2022-11-08T05:26:48.640Z,100630.03
2022-11-08T05:29:18.928Z,100634.38
2022-11-08T05:31:48.028Z,100634.44
2022-11-08T05:34:17.484Z,100639.88
2022-11-08T05:36:44.351Z,100643.84
2022-11-08T05:39:11.204Z,100642.16
2022-11-08T05:41:42.644Z,100644.94
2022-11-08T05:44:09.634Z,100647.66
2022-11-08T05:46:38.967Z,100642.41
2022-11-08T05:49:05.907Z,100631.44
2022-11-08T05:51:37.310Z,100642.00
2022-11-08T05:54:09.252Z,100642.94
2022-11-08T05:56:40.826Z,100637.84
2022-11-08T05:59:10.056Z,100634.28
2022-11-08T06:01:36.982Z,100637.59
2022-11-08T06:04:06.450Z,100632.94
2022-11-08T06:06:33.583Z,100632.78
2022-11-08T06:09:00.513Z,100626.97
2022-11-08T06:11:28.437Z,100631.38
2022-11-08T06:13:56.363Z,100646.94
2022-11-08T06:16:24.334Z,100635.47
2022-11-08T06:18:53.797Z,100632.28
2022-11-08T06:21:21.606Z,100630.72
2022-11-08T06:23:52.628Z,100636.13
2022-11-08T06:26:19.521Z,100625.25
2022-11-08T06:28:48.757Z,100635.34
2022-11-08T06:31:19.158Z,100626.75
2022-11-08T06:33:46.183Z,100628.94
2022-11-08T06:36:13.148Z,100634.00
2022-11-08T06:38:43.288Z,100627.38
2022-11-08T06:41:18.975Z,100620.34
2022-11-08T06:43:45.843Z,100628.63
2022-11-08T06:46:15.756Z,100634.31
2022-11-08T06:48:44.948Z,100629.97
2022-11-08T06:51:11.855Z,100629.97
2022-11-08T06:53:38.762Z,100629.50
2022-11-08T06:56:08.184Z,100627.97
2022-11-08T06:58:35.154Z,100628.09
2022-11-08T07:01:07.229Z,100627.63
2022-11-08T07:03:37.342Z,100624.69
2022-11-08T07:06:06.211Z,100619.31
2022-11-08T07:08:36.673Z,100620.16
2022-11-08T07:11:06.612Z,100626.09
2022-11-08T07:13:34.268Z,100620.66
2022-11-08T07:16:01.723Z,100613.31
2022-11-08T07:18:29.315Z,100612.19
2022-11-08T07:21:03.631Z,100614.09
2022-11-08T07:23:31.229Z,100614.09
2022-11-08T07:26:08.924Z,100613.88
2022-11-08T07:28:35.833Z,100609.34
2022-11-08T07:31:07.540Z,100611.88
2022-11-08T07:33:34.600Z,100608.88
2022-11-08T07:36:01.953Z,100618.16
2022-11-08T07:38:31.438Z,100605.97
2022-11-08T07:41:00.544Z,100610.63
2022-11-08T07:43:28.899Z,100602.41
2022-11-08T07:45:59.229Z,100603.00
2022-11-08T07:48:27.702Z,100611.47
2022-11-08T07:50:59.515Z,100614.97
2022-11-08T07:53:26.396Z,100608.84
2022-11-08T07:55:55.894Z,100611.06
2022-11-08T07:58:25.412Z,100614.53
2022-11-08T08:00:52.351Z,100604.41
2022-11-08T08:03:19.666Z,100617.19
2022-11-08T08:05:57.965Z,100613.69
2022-11-08T08:08:29.890Z,100616.59
2022-11-08T08:11:01.086Z,100618.50
2022-11-08T08:13:28.594Z,100618.19
2022-11-08T08:16:01.603Z,100619.97
2022-11-08T08:18:30.104Z,100614.75
2022-11-08T08:20:59.586Z,100620.66
2022-11-08T08:23:28.644Z,100611.09
2022-11-08T08:25:56.257Z,100619.91
2022-11-08T08:28:23.111Z,100615.06
2022-11-08T08:30:50.018Z,100615.13
2022-11-08T08:33:33.723Z,100615.91
2022-11-08T08:36:01.969Z,100609.88
2022-11-08T08:38:30.505Z,100613.34
2022-11-08T08:40:58.613Z,100611.59
2022-11-08T08:43:27.706Z,100606.75
2022-11-08T08:46:00.903Z,100609.78
2022-11-08T08:48:30.466Z,100610.63
2022-11-08T08:51:02.672Z,100617.31
2022-11-08T08:53:29.552Z,100604.84
2022-11-08T08:55:58.560Z,100616.03
2022-11-08T08:58:25.522Z,100597.97
2022-11-08T09:03:41.507Z,100590.75
2022-11-08T09:06:08.471Z,100590.00
2022-11-08T09:08:35.586Z,100594.22
2022-11-08T09:11:03.306Z,100587.72
2022-11-08T09:13:33.169Z,100582.25
2022-11-08T09:16:02.702Z,100572.66
2022-11-08T09:18:31.150Z,100579.22
2022-11-08T09:20:58.626Z,100575.41
2022-11-08T09:23:28.185Z,100575.66
2022-11-08T09:26:04.212Z,100575.59
2022-11-08T09:28:37.644Z,100576.75
2022-11-08T09:31:09.288Z,100575.03
2022-11-08T09:33:39.954Z,100571.44
2022-11-08T09:36:09.180Z,100574.22
2022-11-08T09:38:36.155Z,100569.63
2022-11-08T09:41:57.927Z,100573.97
2022-11-08T09:44:40.091Z,100550.59
2022-11-08T09:47:42.153Z,100552.16
2022-11-08T09:50:21.877Z,100556.06
2022-11-08T09:53:03.347Z,100560.69
2022-11-08T09:55:44.130Z,100551.03
2022-11-08T09:58:55.464Z,100546.31
2022-11-08T10:01:27.431Z,100543.94
2022-11-08T10:04:00.236Z,100532.56
2022-11-08T10:07:04.251Z,100530.97
2022-11-08T10:09:37.696Z,100533.41
2022-11-08T10:12:46.826Z,100524.09
2022-11-08T10:15:37.217Z,100528.28
2022-11-08T10:18:13.326Z,100517.81
2022-11-08T10:21:18.509Z,100517.59
2022-11-08T10:23:58.691Z,100498.31
2022-11-08T10:26:35.955Z,100503.59
2022-11-08T10:29:19.771Z,100493.66
2022-11-08T10:31:50.096Z,100484.41
2022-11-08T10:34:24.012Z,100486.09
2022-11-08T10:37:00.657Z,100471.41
2022-11-08T10:39:34.357Z,100472.88
2022-11-08T10:42:20.168Z,100467.03
2022-11-08T10:44:47.128Z,100459.91
2022-11-08T10:47:29.661Z,100455.41
2022-11-08T10:50:02.500Z,100450.88
2022-11-08T10:52:46.671Z,100440.69
2022-11-08T10:55:38.393Z,100445.25
2022-11-08T10:58:32.514Z,100437.50
2022-11-08T11:01:07.753Z,100436.78
2022-11-08T11:03:34.657Z,100423.00
2022-11-08T11:06:05.294Z,100418.75
2022-11-08T11:08:33.164Z,100420.69
2022-11-08T11:11:37.385Z,100418.75
2022-11-08T11:14:22.500Z,100419.25
2022-11-08T11:17:07.598Z,100415.00
2022-11-08T11:19:35.245Z,100407.78
2022-11-08T11:22:08.271Z,100410.41
2022-11-08T11:24:37.555Z,100411.16
2022-11-08T11:27:20.630Z,100402.06
2022-11-08T11:29:49.562Z,100401.84
2022-11-08T11:32:33.285Z,100421.94
2022-11-08T11:35:03.554Z,100394.31
2022-11-08T11:37:40.379Z,100396.88
2022-11-08T11:40:32.429Z,100403.66
2022-11-08T11:43:16.040Z,100401.94
2022-11-08T11:46:22.749Z,100397.03
2022-11-08T11:49:00.312Z,100407.66
2022-11-08T11:51:32.743Z,100390.59
2022-11-08T11:54:02.627Z,100399.19
2022-11-08T11:56:43.059Z,100382.72
2022-11-08T11:59:40.254Z,100389.53
2022-11-08T12:02:47.064Z,100389.41
2022-11-08T12:05:41.455Z,100377.84
2022-11-08T12:08:37.710Z,100377.94
2022-11-08T12:11:59.410Z,100366.78
2022-11-08T12:14:52.289Z,100376.09
2022-11-08T12:18:00.538Z,100358.25
2022-11-08T12:20:38.827Z,100356.84
2022-11-08T12:23:38.815Z,100359.06
2022-11-08T12:26:27.360Z,100353.09
2022-11-08T12:29:25.100Z,100344.03
2022-11-08T12:32:09.591Z,100338.84
2022-11-08T12:35:03.204Z,100330.81
2022-11-08T12:38:05.813Z,100327.13
2022-11-08T12:40:51.260Z,100318.97
2022-11-08T12:43:41.385Z,100326.00
2022-11-08T12:46:19.215Z,100328.13
2022-11-08T12:49:42.637Z,100322.72
2022-11-08T12:52:45.828Z,100303.19
2022-11-08T12:55:33.203Z,100318.94
2022-11-08T12:58:13.642Z,100307.03
2022-11-08T13:00:42.154Z,100307.66
2022-11-08T13:03:11.994Z,100314.69
2022-11-08T13:05:46.120Z,100320.50
2022-11-08T13:08:27.242Z,100298.03
2022-11-08T13:11:04.216Z,100310.47
2022-11-08T13:13:54.724Z,100305.41
2022-11-08T13:16:26.614Z,100293.88
2022-11-08T13:19:08.500Z,100318.72
2022-11-08T13:21:41.992Z,100308.97
2022-11-08T13:24:38.376Z,100309.47
2022-11-08T13:27:22.669Z,100305.41
2022-11-08T13:29:53.265Z,100304.09
2022-11-08T13:32:52.689Z,100309.13
2022-11-08T13:35:31.348Z,100296.91
2022-11-08T13:38:32.222Z,100299.19
2022-11-08T13:41:15.173Z,100298.09
2022-11-08T13:43:45.981Z,100284.88
2022-11-08T13:46:22.958Z,100286.78
2022-11-08T13:49:02.007Z,100289.34
2022-11-08T13:51:44.649Z,100300.59
2022-11-08T13:54:23.949Z,100299.56
2022-11-08T13:57:03.167Z,100299.28
2022-11-08T13:59:33.192Z,100299.72
2022-11-08T14:02:21.814Z,100297.63
2022-11-08T14:04:49.199Z,100278.63
2022-11-08T14:08:01.678Z,100281.06
2022-11-08T14:10:53.991Z,100289.78
2022-11-08T14:13:42.195Z,100283.06
2022-11-08T14:16:26.085Z,100273.34
2022-11-08T14:18:55.186Z,100275.38
2022-11-08T14:21:22.781Z,100278.72
2022-11-08T14:23:51.194Z,100289.00
2022-11-08T14:26:27.704Z,100290.97
2022-11-08T14:28:59.840Z,100283.81
2022-11-08T14:31:30.410Z,100269.06
2022-11-08T14:34:01.121Z,100269.44
2022-11-08T14:36:30.914Z,100269.91
2022-11-08T14:39:04.620Z,100262.97
2022-11-08T14:41:36.022Z,100280.78
2022-11-08T14:44:05.823Z,100277.38
2022-11-08T14:46:39.425Z,100271.47
2022-11-08T14:49:13.751Z,100275.91
2022-11-08T14:51:45.065Z,100266.56
2022-11-08T14:54:27.013Z,100271.03
2022-11-08T14:57:00.068Z,100276.69
2022-11-08T14:59:27.475Z,100270.78
2022-11-08T15:01:57.762Z,100275.66
2022-11-08T15:04:27.765Z,100267.66
2022-11-08T15:07:02.071Z,100271.13
2022-11-08T15:09:34.554Z,100272.56
2022-11-08T15:12:05.904Z,100264.75
2022-11-08T15:14:36.074Z,100263.31
2022-11-08T15:17:05.230Z,100256.81
2022-11-08T15:19:32.001Z,100262.44
2022-11-08T15:22:30.968Z,100258.09
2022-11-08T15:25:38.348Z,100257.66
2022-11-08T15:28:35.823Z,100251.94
2022-11-08T15:31:13.143Z,100259.75
2022-11-08T15:33:43.330Z,100267.00
2022-11-08T15:36:16.122Z,100260.59
2022-11-08T15:38:48.798Z,100256.69
2022-11-08T15:41:36.863Z,100256.50
2022-11-08T15:44:25.602Z,100250.59
2022-11-08T15:46:56.523Z,100248.50
2022-11-08T15:49:32.394Z,100252.28
2022-11-08T15:52:03.435Z,100245.66
2022-11-08T15:54:35.991Z,100240.84
2022-11-08T15:57:05.142Z,100245.06
2022-11-08T15:59:37.187Z,100253.94
2022-11-08T16:02:09.342Z,100251.34
2022-11-08T16:04:39.328Z,100243.16
2022-11-08T16:07:09.047Z,100243.72
2022-11-08T16:09:36.067Z,100238.44
2022-11-08T16:12:03.717Z,100245.09
2022-11-08T16:14:32.843Z,100251.84
2022-11-08T16:17:02.019Z,100256.72
2022-11-08T16:19:31.398Z,100238.66
2022-11-08T16:22:07.181Z,100248.09
2022-11-08T16:24:34.773Z,100257.31
2022-11-08T16:27:02.153Z,100247.03
2022-11-08T16:29:32.207Z,100238.41
2022-11-08T16:31:59.089Z,100243.88
2022-11-08T16:34:26.083Z,100238.63
2022-11-08T16:36:54.625Z,100250.00
2022-11-08T16:39:28.412Z,100246.63
2022-11-08T16:41:55.298Z,100253.34
2022-11-08T16:44:23.275Z,100247.72
2022-11-08T16:46:53.684Z,100227.06
2022-11-08T16:49:24.353Z,100238.41
2022-11-08T16:51:51.385Z,100222.41
2022-11-08T16:54:21.155Z,100225.13
2022-11-08T16:56:48.139Z,100216.69
2022-11-08T16:59:17.328Z,100225.69
2022-11-08T17:01:44.688Z,100223.22
2022-11-08T17:04:13.839Z,100218.56
2022-11-08T17:06:40.852Z,100213.28
2022-11-08T17:09:10.270Z,100221.63
2022-11-08T17:11:39.621Z,100210.84
2022-11-08T17:14:13.142Z,100217.41
2022-11-08T17:16:40.139Z,100204.56
2022-11-08T17:19:07.220Z,100207.75
2022-11-08T17:21:45.459Z,100199.94
2022-11-08T17:24:21.250Z,100197.63
2022-11-08T17:26:50.288Z,100218.69
2022-11-08T17:29:19.408Z,100226.66
2022-11-08T17:31:49.506Z,100217.03
2022-11-08T17:34:19.607Z,100238.44
2022-11-08T17:36:46.581Z,100248.09
2022-11-08T17:39:16.122Z,100246.84
2022-11-08T17:41:43.022Z,100249.38
2022-11-08T17:44:10.007Z,100259.84
2022-11-08T17:46:36.975Z,100258.22
2022-11-08T17:49:11.457Z,100259.91
2022-11-08T17:51:40.791Z,100267.91
2022-11-08T17:54:10.854Z,100272.50
2022-11-08T17:56:39.817Z,100269.56
2022-11-08T17:59:06.730Z,100267.06
2022-11-08T18:01:33.947Z,100269.97
2022-11-08T18:04:06.474Z,100264.97
2022-11-08T18:06:35.948Z,100265.16
2022-11-08T18:09:03.008Z,100257.38
2022-11-08T18:11:29.896Z,100264.34
2022-11-08T18:13:56.993Z,100255.91
2022-11-08T18:16:24.012Z,100264.09
2022-11-08T18:18:51.820Z,100269.13
2022-11-08T18:21:19.858Z,100259.69
2022-11-08T18:23:48.993Z,100266.63
2022-11-08T18:26:17.276Z,100264.09
2022-11-08T18:28:47.192Z,100269.56
2022-11-08T18:31:18.260Z,100269.59
2022-11-08T18:33:46.189Z,100267.03
2022-11-08T18:36:26.182Z,100260.53
2022-11-08T18:38:59.248Z,100262.03
2022-11-08T18:41:31.702Z,100263.69
2022-11-08T18:44:01.137Z,100266.84
2022-11-08T18:46:36.542Z,100257.00
2022-11-08T18:49:05.926Z,100255.91
2022-11-08T18:51:35.147Z,100263.91
2022-11-08T18:54:02.058Z,100262.66
2022-11-08T18:56:31.183Z,100253.63
2022-11-08T18:59:02.769Z,100255.28
2022-11-08T19:01:29.820Z,100257.81
2022-11-08T19:03:59.199Z,100264.34
2022-11-08T19:06:28.905Z,100267.91
2022-11-08T19:08:57.527Z,100261.38
2022-11-08T19:11:24.406Z,100259.72
2022-11-08T19:13:51.297Z,100259.28
2022-11-08T19:16:20.686Z,100263.69
2022-11-08T19:18:49.814Z,100269.59
2022-11-08T19:21:25.857Z,100267.88
2022-11-08T19:23:57.838Z,100263.69
2022-11-08T19:26:31.367Z,100261.59
2022-11-08T19:29:01.284Z,100270.41
2022-11-08T19:31:28.229Z,100277.78
2022-11-08T19:33:55.761Z,100275.88
2022-11-08T19:36:27.382Z,100283.88
2022-11-08T19:38:58.217Z,100272.94
2022-11-08T19:41:28.100Z,100275.88
2022-11-08T19:43:55.238Z,100269.78
2022-11-08T19:46:30.556Z,100268.53
2022-11-08T19:49:02.405Z,100269.78
2022-11-08T19:51:33.025Z,100263.69
2022-11-08T19:54:06.436Z,100272.09
2022-11-08T19:57:04.285Z,100272.91
2022-11-08T19:59:25.613Z,100273.13
2022-11-08T20:01:52.670Z,100270.84
2022-11-08T20:04:22.630Z,100264.94
2022-11-08T20:06:49.594Z,100274.59
2022-11-08T20:09:16.786Z,100277.53
2022-11-08T20:11:43.881Z,100281.75
2022-11-08T20:14:15.426Z,100276.69
2022-11-08T20:16:52.110Z,100277.56
2022-11-08T20:19:20.717Z,100272.94
2022-11-08T20:21:52.407Z,100286.16
2022-11-08T20:24:22.008Z,100271.25
2022-11-08T20:26:51.179Z,100275.03
2022-11-08T20:29:18.381Z,100275.88
2022-11-08T20:31:48.133Z,100275.44
2022-11-08T20:34:18.788Z,100267.44
2022-11-08T20:36:46.651Z,100275.84
2022-11-08T20:39:18.399Z,100271.41
2022-11-08T20:41:45.388Z,100283.03
2022-11-08T20:44:15.031Z,100270.19
2022-11-08T20:46:44.341Z,100278.78
2022-11-08T20:49:11.470Z,100283.66
2022-11-08T20:51:38.401Z,100284.06
2022-11-08T20:54:11.402Z,100282.09
2022-11-08T20:56:38.642Z,100280.91
2022-11-08T20:59:11.020Z,100276.50
2022-11-08T21:01:40.539Z,100266.41
2022-11-08T21:04:08.809Z,100268.50
2022-11-08T21:06:36.649Z,100276.28
2022-11-08T21:11:53.746Z,100270.41
2022-11-08T21:14:21.198Z,100265.75
2022-11-08T21:17:19.637Z,100277.13
2022-11-08T21:19:35.403Z,100280.50
2022-11-08T21:22:20.113Z,100277.97
2022-11-08T21:24:48.287Z,100284.50
2022-11-08T21:27:16.645Z,100275.25
2022-11-08T21:29:43.554Z,100280.06
2022-11-08T21:32:13.001Z,100283.88
2022-11-08T21:34:46.211Z,100271.00
2022-11-08T21:37:13.759Z,100279.63
2022-11-08T21:39:43.389Z,100276.66
2022-11-08T21:42:10.328Z,100281.09
2022-11-08T21:44:41.793Z,100285.53
2022-11-08T21:47:11.109Z,100276.94
2022-11-08T21:49:42.554Z,100270.19
2022-11-08T21:52:09.538Z,100283.44
2022-11-08T21:54:39.525Z,100266.84
2022-11-08T21:57:06.418Z,100288.47
2022-11-08T21:59:33.340Z,100277.31
2022-11-08T22:02:02.494Z,100282.41
2022-11-08T22:04:29.409Z,100280.06
2022-11-08T22:06:56.567Z,100285.53
2022-11-08T22:09:23.574Z,100285.06
2022-11-08T22:11:50.444Z,100281.88
2022-11-08T22:14:17.355Z,100287.41
2022-11-08T22:16:44.313Z,100291.78
2022-11-08T22:19:16.484Z,100293.47
2022-11-08T22:21:44.481Z,100285.91
2022-11-08T22:24:21.956Z,100280.88
2022-11-08T22:26:50.514Z,100281.31
2022-11-08T22:29:18.087Z,100289.31
2022-11-08T22:31:45.489Z,100289.28
2022-11-08T22:34:15.084Z,100283.84
2022-11-08T22:36:45.712Z,100289.34
2022-11-08T22:39:18.648Z,100296.06
2022-11-08T22:41:47.576Z,100294.78
2022-11-08T22:44:22.105Z,100291.66
2022-11-08T22:46:51.648Z,100291.66
2022-11-08T22:49:18.586Z,100293.34
2022-11-08T22:51:48.002Z,100298.81
2022-11-08T22:54:17.357Z,100289.53
2022-11-08T22:56:44.359Z,100287.19
2022-11-08T22:59:16.262Z,100286.81
2022-11-08T23:01:43.321Z,100284.69
2022-11-08T23:04:11.312Z,100277.97
2022-11-08T23:06:39.639Z,100287.22
2022-11-08T23:09:07.307Z,100280.72
2022-11-08T23:11:52.626Z,100286.81
2022-11-08T23:14:38.036Z,100278.41
2022-11-08T23:17:07.998Z,100277.13
2022-11-08T23:19:55.816Z,100292.25
2022-11-08T23:22:41.342Z,100280.91
2022-11-08T23:25:08.669Z,100280.72
2022-11-08T23:27:56.519Z,100288.06
2022-11-08T23:30:44.133Z,100293.97
2022-11-08T23:33:13.289Z,100287.88
2022-11-08T23:36:00.229Z,100295.22
2022-11-08T23:38:29.915Z,100300.25
2022-11-08T23:41:18.017Z,100300.25
2022-11-08T23:44:03.576Z,100296.88
2022-11-08T23:46:30.397Z,100292.47
2022-11-08T23:48:59.525Z,100297.75
2022-11-08T23:51:28.937Z,100301.31
2022-11-08T23:53:55.975Z,100291.84
2022-11-08T23:56:29.507Z,100301.72
2022-11-08T23:58:59.107Z,100296.91
